createdAt,value
2019-03-11T00:02:08.183Z,75.20
2019-03-11T00:04:36.568Z,77.40
2019-03-11T00:07:04.956Z,73.80
2019-03-11T00:09:33.336Z,73.70
2019-03-11T00:12:02.187Z,76.60
2019-03-11T00:14:30.567Z,77.20
2019-03-11T00:16:58.944Z,76.80
2019-03-11T00:19:27.340Z,76.00
2019-03-11T00:21:55.728Z,77.40
2019-03-11T00:24:24.126Z,78.00
2019-03-11T00:26:52.501Z,76.50
2019-03-11T00:29:20.892Z,77.10
2019-03-11T00:31:49.266Z,77.60
2019-03-11T00:34:17.651Z,76.80
2019-03-11T00:36:46.048Z,74.50
2019-03-11T00:39:14.440Z,76.80
2019-03-11T00:41:42.824Z,77.10
2019-03-11T00:44:11.218Z,77.50
2019-03-11T00:46:39.603Z,77.20
2019-03-11T00:49:07.981Z,77.80
2019-03-11T00:51:36.371Z,76.70
2019-03-11T00:54:04.820Z,75.30
2019-03-11T00:56:33.210Z,76.60
2019-03-11T00:59:01.604Z,76.60
2019-03-11T01:01:29.980Z,72.90
2019-03-11T01:03:58.358Z,77.10
2019-03-11T01:06:26.750Z,76.40
2019-03-11T01:08:55.128Z,76.00
2019-03-11T01:11:23.511Z,76.00
2019-03-11T01:13:51.896Z,74.80
2019-03-11T01:16:20.585Z,78.30
2019-03-11T01:18:48.964Z,74.50
2019-03-11T01:21:17.359Z,75.40
2019-03-11T01:23:45.728Z,76.40
2019-03-11T01:26:14.408Z,77.90
2019-03-11T01:28:42.788Z,76.90
2019-03-11T01:31:11.173Z,77.00
2019-03-11T01:33:39.564Z,78.40
2019-03-11T01:36:07.952Z,76.00
2019-03-11T01:38:36.348Z,77.00
2019-03-11T01:41:04.735Z,73.10
2019-03-11T01:43:33.111Z,74.00
2019-03-11T01:46:01.505Z,76.30
2019-03-11T01:48:29.880Z,73.00
2019-03-11T01:50:58.269Z,74.20
2019-03-11T01:53:26.727Z,76.30
2019-03-11T01:55:55.120Z,76.70
2019-03-11T01:58:23.495Z,77.20
2019-03-11T02:00:51.887Z,74.30
2019-03-11T02:03:20.327Z,75.10
2019-03-11T02:05:48.726Z,75.60
2019-03-11T02:08:17.091Z,75.20
2019-03-11T02:10:45.485Z,76.00
2019-03-11T02:13:13.886Z,74.90
2019-03-11T02:15:42.267Z,75.40
2019-03-11T02:18:10.649Z,76.50
2019-03-11T02:20:39.041Z,76.80
2019-03-11T02:23:07.416Z,77.90
2019-03-11T02:25:35.807Z,78.60
2019-03-11T02:28:04.188Z,78.10
2019-03-11T02:30:32.912Z,77.60
2019-03-11T02:33:01.293Z,76.50
2019-03-11T02:35:30.345Z,77.50
2019-03-11T02:37:59.011Z,78.30
2019-03-11T02:40:27.816Z,77.60
2019-03-11T02:42:56.277Z,76.70
2019-03-11T02:45:24.662Z,77.20
2019-03-11T02:47:53.051Z,78.30
2019-03-11T02:50:21.431Z,76.90
2019-03-11T02:52:49.830Z,75.50
2019-03-11T02:55:18.204Z,77.20
2019-03-11T02:57:46.597Z,77.70
2019-03-11T03:00:19.968Z,77.40
2019-03-11T03:02:50.463Z,78.50
2019-03-11T03:05:19.691Z,78.70
2019-03-11T03:07:48.090Z,77.30
2019-03-11T03:10:17.133Z,77.40
2019-03-11T03:12:45.521Z,79.00
2019-03-11T03:15:13.967Z,79.90
2019-03-11T03:17:42.361Z,79.80
2019-03-11T03:20:13.195Z,78.30
2019-03-11T03:22:41.591Z,79.10
2019-03-11T03:25:11.724Z,78.20
2019-03-11T03:27:40.137Z,80.00
2019-03-11T03:30:11.693Z,80.10
2019-03-11T03:32:40.125Z,78.80
2019-03-11T03:35:08.690Z,79.70
2019-03-11T03:37:37.136Z,79.90
2019-03-11T03:40:08.563Z,80.80
2019-03-11T03:42:37.023Z,79.00
2019-03-11T03:45:29.065Z,79.90
2019-03-11T03:47:57.903Z,80.50
2019-03-11T03:50:29.080Z,80.20
2019-03-11T03:52:57.795Z,80.90
2019-03-11T03:55:26.177Z,79.80
2019-03-11T03:57:54.568Z,80.20
2019-03-11T04:00:22.988Z,81.20
2019-03-11T04:02:51.430Z,80.00
2019-03-11T04:05:19.868Z,80.70
2019-03-11T04:07:48.260Z,80.30
2019-03-11T04:10:20.152Z,80.40
2019-03-11T04:12:48.618Z,79.20
2019-03-11T04:15:17.260Z,80.40
2019-03-11T04:17:45.776Z,81.30
2019-03-11T04:20:19.108Z,81.40
2019-03-11T04:22:47.572Z,82.30
2019-03-11T04:25:16.122Z,82.30
2019-03-11T04:27:44.572Z,81.90
2019-03-11T04:30:18.845Z,81.80
2019-03-11T04:32:47.221Z,80.40
2019-03-11T04:35:15.784Z,82.50
2019-03-11T04:37:44.155Z,83.70
2019-03-11T04:40:15.056Z,85.40
2019-03-11T04:42:43.483Z,86.50
2019-03-11T04:45:16.350Z,86.90
2019-03-11T04:47:45.000Z,87.20
2019-03-11T04:50:20.704Z,87.60
2019-03-11T04:52:49.157Z,88.20
2019-03-11T04:55:17.608Z,88.60
2019-03-11T04:57:53.495Z,89.30
2019-03-11T05:00:24.487Z,90.00
2019-03-11T05:02:52.862Z,90.10
2019-03-11T05:05:21.248Z,90.20
2019-03-11T05:07:49.645Z,90.20
2019-03-11T05:10:18.033Z,90.40
2019-03-11T05:12:46.412Z,90.10
2019-03-11T05:15:14.867Z,90.50
2019-03-11T05:17:43.577Z,90.30
2019-03-11T05:20:14.101Z,90.10
2019-03-11T05:22:41.755Z,89.30
2019-03-11T05:25:12.148Z,90.10
2019-03-11T05:27:40.592Z,90.00
2019-03-11T05:30:19.984Z,89.50
2019-03-11T05:32:48.631Z,89.80
2019-03-11T05:35:17.083Z,88.50
2019-03-11T05:37:45.457Z,89.70
2019-03-11T05:40:18.392Z,88.90
2019-03-11T05:42:46.769Z,88.70
2019-03-11T05:45:18.529Z,88.80
2019-03-11T05:47:46.990Z,88.90
2019-03-11T05:50:16.315Z,88.90
2019-03-11T05:52:44.687Z,88.80
2019-03-11T05:55:13.612Z,89.20
2019-03-11T05:57:41.994Z,88.90
2019-03-11T06:00:21.999Z,88.90
2019-03-11T06:02:50.372Z,88.60
2019-03-11T06:05:18.771Z,88.50
2019-03-11T06:07:47.146Z,88.90
2019-03-11T06:10:15.890Z,87.80
2019-03-11T06:12:44.273Z,88.10
2019-03-11T06:15:14.003Z,88.90
2019-03-11T06:17:42.532Z,88.20
2019-03-11T06:20:17.595Z,86.80
2019-03-11T06:22:45.972Z,89.40
2019-03-11T06:25:14.364Z,89.90
2019-03-11T06:27:42.759Z,88.20
2019-03-11T06:30:11.772Z,89.60
2019-03-11T06:32:40.159Z,89.30
2019-03-11T06:35:08.604Z,89.70
2019-03-11T06:37:36.991Z,88.90
2019-03-11T06:40:08.445Z,89.50
2019-03-11T06:42:36.850Z,88.50
2019-03-11T06:45:07.963Z,88.70
2019-03-11T06:47:36.347Z,89.00
2019-03-11T06:50:07.373Z,90.00
2019-03-11T06:52:35.766Z,88.90
2019-03-11T06:55:08.440Z,89.70
2019-03-11T06:57:36.839Z,87.50
2019-03-11T07:00:17.204Z,88.70
2019-03-11T07:02:45.702Z,85.80
2019-03-11T07:05:19.931Z,88.80
2019-03-11T07:07:44.309Z,88.00
2019-03-11T07:10:13.941Z,87.90
2019-03-11T07:12:42.345Z,88.30
2019-03-11T07:15:12.157Z,89.40
2019-03-11T07:17:41.321Z,87.90
2019-03-11T07:20:17.897Z,88.90
2019-03-11T07:22:46.289Z,85.70
2019-03-11T07:25:14.677Z,88.10
2019-03-11T07:27:43.153Z,88.10
2019-03-11T07:30:14.252Z,87.30
2019-03-11T07:32:42.641Z,85.00
2019-03-11T07:35:11.101Z,85.40
2019-03-11T07:37:39.552Z,83.00
2019-03-11T07:40:09.967Z,82.60
2019-03-11T07:42:38.373Z,81.70
2019-03-11T07:45:09.153Z,78.60
2019-03-11T07:47:37.548Z,79.40
2019-03-11T07:50:07.784Z,78.80
2019-03-11T07:52:36.231Z,77.70
2019-03-11T07:55:09.203Z,75.70
2019-03-11T07:57:37.593Z,76.40
2019-03-11T08:00:11.981Z,74.80
2019-03-11T08:02:40.390Z,76.80
2019-03-11T08:05:09.799Z,75.70
2019-03-11T08:07:38.194Z,74.00
2019-03-11T08:10:09.677Z,76.10
2019-03-11T08:12:38.086Z,74.70
2019-03-11T08:15:09.541Z,72.70
2019-03-11T08:17:37.948Z,75.10
2019-03-11T08:20:09.667Z,78.00
2019-03-11T08:22:38.819Z,75.70
2019-03-11T08:25:09.606Z,76.80
2019-03-11T08:27:38.071Z,77.10
2019-03-11T08:30:18.519Z,70.60
2019-03-11T08:32:46.918Z,78.60
2019-03-11T08:35:15.521Z,78.70
2019-03-11T08:37:43.924Z,74.80
2019-03-11T08:40:17.311Z,76.80
2019-03-11T08:42:45.758Z,76.00
2019-03-11T08:45:18.699Z,77.20
2019-03-11T08:47:47.134Z,74.70
2019-03-11T08:50:17.127Z,69.00
2019-03-11T08:52:45.606Z,74.70
2019-03-11T08:55:14.516Z,73.30
2019-03-11T08:57:42.991Z,75.40
2019-03-11T09:00:24.807Z,71.00
2019-03-11T09:02:53.288Z,71.40
2019-03-11T09:05:21.667Z,71.20
2019-03-11T09:07:50.058Z,70.60
2019-03-11T09:10:21.304Z,71.10
2019-03-11T09:12:49.696Z,70.40
2019-03-11T09:15:22.372Z,70.00
2019-03-11T09:17:50.809Z,72.80
2019-03-11T09:20:19.743Z,73.30
2019-03-11T09:22:48.111Z,68.70
2019-03-11T09:25:23.995Z,69.90
2019-03-11T09:27:52.441Z,73.40
2019-03-11T09:30:21.987Z,68.30
2019-03-11T09:32:50.440Z,71.40
2019-03-11T09:35:18.901Z,70.40
2019-03-11T09:37:47.268Z,72.10
2019-03-11T09:40:20.719Z,70.30
2019-03-11T09:42:49.092Z,72.00
2019-03-11T09:45:18.633Z,72.70
2019-03-11T09:47:47.085Z,70.20
2019-03-11T09:50:16.208Z,69.80
2019-03-11T09:52:44.652Z,70.20
2019-03-11T09:55:17.820Z,65.60
2019-03-11T09:57:46.209Z,69.20
2019-03-11T10:00:25.612Z,68.30
2019-03-11T10:02:53.991Z,64.90
2019-03-11T10:05:22.462Z,67.60
2019-03-11T10:07:51.011Z,69.30
2019-03-11T10:10:24.128Z,70.10
2019-03-11T10:12:52.507Z,66.20
2019-03-11T10:15:21.847Z,66.00
2019-03-11T10:17:50.224Z,66.10
2019-03-11T10:20:20.151Z,65.60
2019-03-11T10:22:48.618Z,63.80
2019-03-11T10:25:17.853Z,60.60
2019-03-11T10:27:46.233Z,64.20
2019-03-11T10:30:22.384Z,64.30
2019-03-11T10:32:50.758Z,61.90
2019-03-11T10:35:31.279Z,66.60
2019-03-11T10:37:50.166Z,60.80
2019-03-11T10:40:26.684Z,65.00
2019-03-11T10:42:55.057Z,56.80
2019-03-11T10:45:30.998Z,62.50
2019-03-11T10:47:53.921Z,57.80
2019-03-11T10:50:22.510Z,63.40
2019-03-11T10:52:50.948Z,65.40
2019-03-11T10:55:21.177Z,66.50
2019-03-11T10:57:49.631Z,54.20
2019-03-11T11:00:34.271Z,66.20
2019-03-11T11:03:02.836Z,55.90
2019-03-11T11:05:31.216Z,61.00
2019-03-11T11:07:59.596Z,57.90
2019-03-11T11:10:28.126Z,60.80
2019-03-11T11:12:56.501Z,60.40
2019-03-11T11:15:29.165Z,63.10
2019-03-11T11:17:57.563Z,67.20
2019-03-11T11:20:26.372Z,60.00
2019-03-11T11:22:55.519Z,63.00
2019-03-11T11:25:25.925Z,59.60
2019-03-11T11:27:54.735Z,64.30
2019-03-11T11:30:31.619Z,60.20
2019-03-11T11:33:00.000Z,62.80
2019-03-11T11:35:28.492Z,62.50
2019-03-11T11:37:56.884Z,65.90
2019-03-11T11:40:30.139Z,57.00
2019-03-11T11:42:58.550Z,59.80
2019-03-11T11:45:28.273Z,66.00
2019-03-11T11:47:56.660Z,62.30
2019-03-11T11:50:25.490Z,67.10
2019-03-11T11:52:53.948Z,64.90
2019-03-11T11:55:25.241Z,65.30
2019-03-11T11:57:53.987Z,55.90
2019-03-11T12:00:49.343Z,64.30
2019-03-11T12:03:17.748Z,59.60
2019-03-11T12:05:46.152Z,66.40
2019-03-11T12:08:14.536Z,57.30
2019-03-11T12:10:42.928Z,65.00
2019-03-11T12:13:11.313Z,68.20
2019-03-11T12:15:39.996Z,56.40
2019-03-11T12:18:08.398Z,62.00
2019-03-11T12:20:37.256Z,61.20
2019-03-11T12:23:05.734Z,57.20
2019-03-11T12:25:34.416Z,63.90
2019-03-11T12:28:04.559Z,66.20
2019-03-11T12:30:34.009Z,67.20
2019-03-11T12:33:02.438Z,59.10
2019-03-11T12:35:31.055Z,69.60
2019-03-11T12:37:59.521Z,68.30
2019-03-11T12:40:27.934Z,66.80
2019-03-11T12:42:56.324Z,65.20
2019-03-11T12:45:26.419Z,56.50
2019-03-11T12:47:55.087Z,60.60
2019-03-11T12:50:33.174Z,56.50
2019-03-11T12:53:01.576Z,58.30
2019-03-11T12:55:30.045Z,66.90
2019-03-11T12:57:58.521Z,59.10
2019-03-11T13:00:26.992Z,61.20
2019-03-11T13:02:55.477Z,68.80
2019-03-11T13:05:24.132Z,65.40
2019-03-11T13:07:52.531Z,67.40
2019-03-11T13:10:23.996Z,59.80
2019-03-11T13:12:52.460Z,62.20
2019-03-11T13:15:22.498Z,62.50
2019-03-11T13:17:50.996Z,59.00
2019-03-11T13:20:33.996Z,68.10
2019-03-11T13:23:02.392Z,63.70
2019-03-11T13:25:30.775Z,64.70
2019-03-11T13:27:59.184Z,67.00
2019-03-11T13:30:27.555Z,63.10
2019-03-11T13:32:55.970Z,64.70
2019-03-11T13:35:24.710Z,62.90
2019-03-11T13:37:53.424Z,55.50
2019-03-11T13:40:21.822Z,65.20
2019-03-11T13:42:50.242Z,60.10
2019-03-11T13:45:18.955Z,61.90
2019-03-11T13:47:47.416Z,65.30
2019-03-11T13:50:18.019Z,54.60
2019-03-11T13:52:45.627Z,69.30
2019-03-11T13:55:15.647Z,69.50
2019-03-11T13:57:44.161Z,60.20
2019-03-11T14:00:19.551Z,61.80
2019-03-11T14:02:47.952Z,61.90
2019-03-11T14:05:16.442Z,63.70
2019-03-11T14:07:46.521Z,58.00
2019-03-11T14:10:16.170Z,63.80
2019-03-11T14:12:44.575Z,64.60
2019-03-11T14:15:15.501Z,65.50
2019-03-11T14:17:43.960Z,63.10
2019-03-11T14:20:13.493Z,58.80
2019-03-11T14:22:41.876Z,63.00
2019-03-11T14:25:11.912Z,66.30
2019-03-11T14:27:40.385Z,65.60
2019-03-11T14:30:18.983Z,60.90
2019-03-11T14:32:48.270Z,59.80
2019-03-11T14:35:16.673Z,66.40
2019-03-11T14:37:45.124Z,66.30
2019-03-11T14:40:20.492Z,61.00
2019-03-11T14:42:50.479Z,65.20
2019-03-11T14:45:19.991Z,72.10
2019-03-11T14:47:48.435Z,61.00
2019-03-11T14:50:17.466Z,67.20
2019-03-11T14:52:45.856Z,57.30
2019-03-11T14:55:14.788Z,68.40
2019-03-11T14:57:43.368Z,65.30
2019-03-11T15:00:14.908Z,64.90
2019-03-11T15:02:43.286Z,69.30
2019-03-11T15:05:11.689Z,67.70
2019-03-11T15:07:40.064Z,68.50
2019-03-11T15:10:13.192Z,64.80
2019-03-11T15:12:42.947Z,64.10
2019-03-11T15:15:25.309Z,68.10
2019-03-11T15:17:53.823Z,66.50
2019-03-11T15:20:22.222Z,62.70
2019-03-11T15:22:50.664Z,62.40
2019-03-11T15:25:20.827Z,60.20
2019-03-11T15:27:49.219Z,62.70
2019-03-11T15:30:24.277Z,66.40
2019-03-11T15:32:52.724Z,65.80
2019-03-11T15:35:21.360Z,61.20
2019-03-11T15:37:49.740Z,63.70
2019-03-11T15:40:18.881Z,64.70
2019-03-11T15:42:47.368Z,66.70
2019-03-11T15:45:19.777Z,67.40
2019-03-11T15:47:48.992Z,70.00
2019-03-11T15:50:20.738Z,63.00
2019-03-11T15:52:49.118Z,62.10
2019-03-11T15:55:18.472Z,66.80
2019-03-11T15:57:46.920Z,63.40
2019-03-11T16:00:20.283Z,68.50
2019-03-11T16:02:48.775Z,66.40
2019-03-11T16:05:23.865Z,65.60
2019-03-11T16:07:52.321Z,68.50
2019-03-11T16:10:21.312Z,59.60
2019-03-11T16:12:49.958Z,63.00
2019-03-11T16:15:18.483Z,60.90
2019-03-11T16:17:46.964Z,68.20
2019-03-11T16:20:23.320Z,57.70
2019-03-11T16:22:51.846Z,65.90
2019-03-11T16:25:20.392Z,63.70
2019-03-11T16:27:48.779Z,64.40
2019-03-11T16:30:28.974Z,63.30
2019-03-11T16:32:59.912Z,67.50
2019-03-11T16:35:29.332Z,67.60
2019-03-11T16:37:57.734Z,69.60
2019-03-11T16:40:26.264Z,61.40
2019-03-11T16:42:54.649Z,64.20
2019-03-11T16:45:23.392Z,64.80
2019-03-11T16:47:51.813Z,65.30
2019-03-11T16:50:29.295Z,69.10
2019-03-11T16:52:57.763Z,68.80
2019-03-11T16:55:42.474Z,65.00
2019-03-11T16:58:10.867Z,66.00
2019-03-11T17:00:41.047Z,70.20
2019-03-11T17:03:09.507Z,61.90
2019-03-11T17:05:38.034Z,66.90
2019-03-11T17:08:06.496Z,62.90
2019-03-11T17:10:34.875Z,61.60
2019-03-11T17:13:03.348Z,63.00
2019-03-11T17:15:31.729Z,63.20
2019-03-11T17:18:00.200Z,65.80
2019-03-11T17:20:28.579Z,66.40
2019-03-11T17:22:56.982Z,66.50
2019-03-11T17:25:25.362Z,63.00
2019-03-11T17:27:53.761Z,63.10
2019-03-11T17:30:26.137Z,69.60
2019-03-11T17:32:54.602Z,60.00
2019-03-11T17:35:23.036Z,63.50
2019-03-11T17:37:52.383Z,65.80
2019-03-11T17:40:23.290Z,65.60
2019-03-11T17:42:51.880Z,70.00
2019-03-11T17:45:20.302Z,67.60
2019-03-11T17:47:48.824Z,69.80
2019-03-11T17:50:20.993Z,69.70
2019-03-11T17:52:49.460Z,71.40
2019-03-11T17:55:18.480Z,69.40
2019-03-11T17:57:47.101Z,71.30
2019-03-11T18:00:25.072Z,65.90
2019-03-11T18:02:52.447Z,69.90
2019-03-11T18:05:20.892Z,65.00
2019-03-11T18:07:49.367Z,67.80
2019-03-11T18:10:17.751Z,69.90
2019-03-11T18:12:46.210Z,69.50
2019-03-11T18:15:15.025Z,68.50
2019-03-11T18:17:43.485Z,69.40
2019-03-11T18:20:14.672Z,72.00
2019-03-11T18:22:43.060Z,71.20
2019-03-11T18:25:14.451Z,72.00
2019-03-11T18:27:42.916Z,68.70
2019-03-11T18:30:31.523Z,69.80
2019-03-11T18:32:59.925Z,71.50
2019-03-11T18:35:28.427Z,67.70
2019-03-11T18:38:03.931Z,71.70
2019-03-11T18:40:26.927Z,71.20
2019-03-11T18:42:55.333Z,70.10
2019-03-11T18:45:23.723Z,72.10
2019-03-11T18:47:52.115Z,70.40
2019-03-11T18:50:26.259Z,70.00
2019-03-11T18:52:54.740Z,70.30
2019-03-11T18:55:23.267Z,69.00
2019-03-11T18:57:51.686Z,69.00
2019-03-11T19:00:24.097Z,70.00
2019-03-11T19:02:52.523Z,71.90
2019-03-11T19:05:22.282Z,71.30
2019-03-11T19:07:50.709Z,69.20
2019-03-11T19:10:19.100Z,73.80
2019-03-11T19:12:47.568Z,70.40
2019-03-11T19:15:24.142Z,70.60
2019-03-11T19:17:52.598Z,72.20
2019-03-11T19:20:24.575Z,73.00
2019-03-11T19:22:53.110Z,74.80
2019-03-11T19:25:21.645Z,74.60
2019-03-11T19:27:50.107Z,73.70
2019-03-11T19:30:21.539Z,75.40
2019-03-11T19:32:49.968Z,73.60
2019-03-11T19:35:19.355Z,71.20
2019-03-11T19:37:47.786Z,74.80
2019-03-11T19:40:18.045Z,73.20
2019-03-11T19:42:46.587Z,71.80
2019-03-11T19:45:16.384Z,75.20
2019-03-11T19:47:44.858Z,71.60
2019-03-11T19:50:18.225Z,74.90
2019-03-11T19:52:57.997Z,73.20
2019-03-11T19:55:17.022Z,71.10
2019-03-11T19:57:48.520Z,70.70
2019-03-11T20:00:21.136Z,73.00
2019-03-11T20:02:49.704Z,74.80
2019-03-11T20:05:21.247Z,75.70
2019-03-11T20:07:49.739Z,70.70
2019-03-11T20:10:18.292Z,74.10
2019-03-11T20:12:46.769Z,72.20
2019-03-11T20:15:15.424Z,72.80
2019-03-11T20:17:43.889Z,72.90
2019-03-11T20:20:14.951Z,73.30
2019-03-11T20:22:43.454Z,71.80
2019-03-11T20:25:15.126Z,72.60
2019-03-11T20:27:43.523Z,72.90
2019-03-11T20:30:22.591Z,71.60
2019-03-11T20:32:51.033Z,74.50
2019-03-11T20:35:19.496Z,76.00
2019-03-11T20:37:47.907Z,73.40
2019-03-11T20:40:16.393Z,74.60
2019-03-11T20:42:44.926Z,72.60
2019-03-11T20:45:15.015Z,75.90
2019-03-11T20:47:44.149Z,73.70
2019-03-11T20:50:14.199Z,71.60
2019-03-11T20:52:42.630Z,77.00
2019-03-11T20:55:18.762Z,76.70
2019-03-11T20:57:48.659Z,73.60
2019-03-11T21:00:21.818Z,73.20
2019-03-11T21:02:50.213Z,77.10
2019-03-11T21:05:30.547Z,74.30
2019-03-11T21:07:59.093Z,76.20
2019-03-11T21:10:27.500Z,74.70
2019-03-11T21:12:56.019Z,75.60
2019-03-11T21:15:24.428Z,74.80
2019-03-11T21:17:53.140Z,76.90
2019-03-11T21:20:21.537Z,72.40
2019-03-11T21:22:51.219Z,74.90
2019-03-11T21:25:22.067Z,74.30
2019-03-11T21:27:50.593Z,77.60
2019-03-11T21:30:23.988Z,75.90
2019-03-11T21:32:53.096Z,77.00
2019-03-11T21:35:21.530Z,76.50
2019-03-11T21:37:49.968Z,75.10
2019-03-11T21:40:19.846Z,75.00
2019-03-11T21:42:48.327Z,73.90
2019-03-11T21:45:17.396Z,72.70
2019-03-11T21:47:45.962Z,75.30
2019-03-11T21:50:22.325Z,75.80
2019-03-11T21:52:50.838Z,76.00
2019-03-11T21:55:19.304Z,75.40
2019-03-11T21:57:47.686Z,76.00
2019-03-11T22:00:33.555Z,72.60
2019-03-11T22:02:54.339Z,76.60
2019-03-11T22:05:22.732Z,76.00
2019-03-11T22:07:51.201Z,78.10
2019-03-11T22:10:20.232Z,72.60
2019-03-11T22:12:48.759Z,77.50
2019-03-11T22:15:24.641Z,76.50
2019-03-11T22:17:53.011Z,76.10
2019-03-11T22:20:22.747Z,77.30
2019-03-11T22:22:51.123Z,75.60
2019-03-11T22:25:20.442Z,77.40
2019-03-11T22:27:48.877Z,76.00
2019-03-11T22:30:18.812Z,76.30
2019-03-11T22:32:47.353Z,77.20
2019-03-11T22:35:15.819Z,75.80
2019-03-11T22:37:47.119Z,74.40
2019-03-11T22:40:17.418Z,74.70
2019-03-11T22:42:45.814Z,75.80
2019-03-11T22:45:20.356Z,78.00
2019-03-11T22:47:50.000Z,79.10
2019-03-11T22:50:18.557Z,77.90
2019-03-11T22:52:47.040Z,77.90
2019-03-11T22:55:15.563Z,79.00
2019-03-11T22:57:43.941Z,80.40
2019-03-11T23:00:32.214Z,80.50
2019-03-11T23:03:00.599Z,80.20
2019-03-11T23:05:29.068Z,78.80
2019-03-11T23:07:57.525Z,81.30
2019-03-11T23:10:25.913Z,81.70
2019-03-11T23:12:54.520Z,81.50
2019-03-11T23:15:22.933Z,82.00
2019-03-11T23:17:51.309Z,79.70
2019-03-11T23:20:19.712Z,80.70
2019-03-11T23:22:48.082Z,80.10
2019-03-11T23:25:16.471Z,81.00
2019-03-11T23:27:44.844Z,81.60
2019-03-11T23:30:14.956Z,80.10
2019-03-11T23:32:44.053Z,81.20
2019-03-11T23:35:12.570Z,79.70
2019-03-11T23:37:40.975Z,77.90
2019-03-11T23:40:09.970Z,78.10
2019-03-11T23:42:38.413Z,78.00
2019-03-11T23:45:10.697Z,79.70
2019-03-11T23:47:39.096Z,78.60
2019-03-11T23:50:18.135Z,77.60
2019-03-11T23:52:45.764Z,77.70
2019-03-11T23:55:14.165Z,80.60
2019-03-11T23:57:42.548Z,79.80
